To NAV CANADA Home Page Login to a new session Search on AWWS site Disclaimer Vers la page française équivalente Tips FAQ What's new on the site To the Forecasts and Observations / NOTAM section To "File a Flight Plan" website Publications and other links Update of the User's profile FIC Telephone Numbers My Weather Data Folder Route Weather Data Regional Weather Data Local Weather Data To the Forecasts and Observations / NOTAM section
Request Generated 11/13/2018 at 18:27:16 UTC . Weather information available at that time is displayed.

METAR/TAF

RED DEER REGIONAL/AB    

METAR CYQF 131800Z 19005KT 15SM FEW150 BKN230 02/M01 A3002 RMK AC2CI3 SLP214=
METAR CYQF 131700Z 21004KT 15SM FEW150 BKN240 M01/M02 A3005 RMK AC2CI5 SLP221=
METAR CYQF 131600Z 19006KT 15SM FEW150 BKN230 M03/M04 A3005 RMK AC2CI5 SLP224=

TAF CYQF 131738Z 1318/1406 21005KT P6SM BKN240
BECMG 1318/1320 24010KT
RMK NXT FCST BY 140000Z=
Your time UTC time
Weather data provided by Environment Canada and NAV CANADA